sensor_id;sensor_type;location;lat;lon;timestamp;P1;durP1;ratioP1;P2;durP2;ratioP2
52072;SDS011;38074;51.232;6.826;2023-01-10T00:04:52;0.70;;;0.30;;
52072;SDS011;38074;51.232;6.826;2023-01-10T00:12:08;1.40;;;0.30;;
52072;SDS011;38074;51.232;6.826;2023-01-10T00:19:42;1.90;;;0.35;;
52072;SDS011;38074;51.232;6.826;2023-01-10T00:26:58;1.65;;;0.40;;
52072;SDS011;38074;51.232;6.826;2023-01-10T00:34:14;0.60;;;0.30;;
52072;SDS011;38074;51.232;6.826;2023-01-10T00:41:30;2.80;;;0.47;;
52072;SDS011;38074;51.232;6.826;2023-01-10T00:49:04;1.30;;;0.40;;
52072;SDS011;38074;51.232;6.826;2023-01-10T00:56:22;1.48;;;0.40;;
52072;SDS011;38074;51.232;6.826;2023-01-10T01:03:38;1.90;;;0.60;;
52072;SDS011;38074;51.232;6.826;2023-01-10T01:10:53;1.23;;;0.27;;
52072;SDS011;38074;51.232;6.826;2023-01-10T01:18:10;0.87;;;0.20;;
52072;SDS011;38074;51.232;6.826;2023-01-10T01:25:28;2.45;;;0.47;;
52072;SDS011;38074;51.232;6.826;2023-01-10T01:32:43;0.47;;;0.30;;
52072;SDS011;38074;51.232;6.826;2023-01-10T01:39:59;1.03;;;0.33;;
52072;SDS011;38074;51.232;6.826;2023-01-10T01:47:21;2.37;;;0.30;;
52072;SDS011;38074;51.232;6.826;2023-01-10T01:54:39;1.33;;;0.30;;
52072;SDS011;38074;51.232;6.826;2023-01-10T02:01:56;1.35;;;0.28;;
52072;SDS011;38074;51.232;6.826;2023-01-10T02:09:27;1.20;;;0.45;;
52072;SDS011;38074;51.232;6.826;2023-01-10T02:39:21;1.05;;;0.30;;
52072;SDS011;38074;51.232;6.826;2023-01-10T02:46:42;1.08;;;0.20;;
52072;SDS011;38074;51.232;6.826;2023-01-10T02:54:15;0.63;;;0.25;;
52072;SDS011;38074;51.232;6.826;2023-01-10T03:09:20;1.20;;;0.30;;
52072;SDS011;38074;51.232;6.826;2023-01-10T03:16:49;1.50;;;0.30;;
52072;SDS011;38074;51.232;6.826;2023-01-10T03:24:18;1.47;;;0.20;;
52072;SDS011;38074;51.232;6.826;2023-01-10T03:32:10;0.75;;;0.20;;
52072;SDS011;38074;51.232;6.826;2023-01-10T03:54:19;0.52;;;0.20;;
52072;SDS011;38074;51.232;6.826;2023-01-10T04:01:35;1.13;;;0.20;;
52072;SDS011;38074;51.232;6.826;2023-01-10T04:08:51;0.57;;;0.30;;
52072;SDS011;38074;51.232;6.826;2023-01-10T04:16:06;0.77;;;0.20;;
52072;SDS011;38074;51.232;6.826;2023-01-10T04:23:22;0.43;;;0.20;;
52072;SDS011;38074;51.232;6.826;2023-01-10T04:30:37;0.43;;;0.30;;
52072;SDS011;38074;51.232;6.826;2023-01-10T04:37:53;0.60;;;0.20;;
52072;SDS011;38074;51.232;6.826;2023-01-10T04:45:08;2.20;;;0.20;;
52072;SDS011;38074;51.232;6.826;2023-01-10T04:52:27;0.40;;;0.10;;
52072;SDS011;38074;51.232;6.826;2023-01-10T04:59:42;0.80;;;0.30;;
52072;SDS011;38074;51.232;6.826;2023-01-10T05:06:58;1.13;;;0.30;;
52072;SDS011;38074;51.232;6.826;2023-01-10T05:14:13;1.13;;;0.27;;
52072;SDS011;38074;51.232;6.826;2023-01-10T05:21:29;0.87;;;0.30;;
52072;SDS011;38074;51.232;6.826;2023-01-10T05:28:45;1.02;;;0.30;;
52072;SDS011;38074;51.232;6.826;2023-01-10T05:36:01;0.70;;;0.43;;
52072;SDS011;38074;51.232;6.826;2023-01-10T05:43:18;0.40;;;0.20;;
52072;SDS011;38074;51.232;6.826;2023-01-10T05:50:34;1.53;;;0.33;;
52072;SDS011;38074;51.232;6.826;2023-01-10T05:57:49;0.60;;;0.20;;
52072;SDS011;38074;51.232;6.826;2023-01-10T06:05:05;1.07;;;0.30;;
52072;SDS011;38074;51.232;6.826;2023-01-10T06:12:20;1.95;;;0.40;;
52072;SDS011;38074;51.232;6.826;2023-01-10T06:19:36;8.47;;;0.73;;
52072;SDS011;38074;51.232;6.826;2023-01-10T06:26:51;8.17;;;1.10;;
52072;SDS011;38074;51.232;6.826;2023-01-10T06:34:07;10.60;;;2.37;;
52072;SDS011;38074;51.232;6.826;2023-01-10T06:41:23;14.17;;;2.33;;
52072;SDS011;38074;51.232;6.826;2023-01-10T06:48:38;14.90;;;2.50;;
52072;SDS011;38074;51.232;6.826;2023-01-10T06:55:54;13.65;;;3.00;;
52072;SDS011;38074;51.232;6.826;2023-01-10T07:03:11;8.00;;;1.80;;
52072;SDS011;38074;51.232;6.826;2023-01-10T07:10:27;7.23;;;2.40;;
52072;SDS011;38074;51.232;6.826;2023-01-10T07:17:42;9.75;;;1.75;;
52072;SDS011;38074;51.232;6.826;2023-01-10T07:24:58;11.40;;;2.30;;
52072;SDS011;38074;51.232;6.826;2023-01-10T07:32:13;10.63;;;1.90;;
52072;SDS011;38074;51.232;6.826;2023-01-10T07:39:29;12.60;;;2.15;;
52072;SDS011;38074;51.232;6.826;2023-01-10T07:46:44;7.47;;;2.13;;
52072;SDS011;38074;51.232;6.826;2023-01-10T07:54:00;10.10;;;1.50;;
52072;SDS011;38074;51.232;6.826;2023-01-10T08:01:16;6.27;;;1.63;;
52072;SDS011;38074;51.232;6.826;2023-01-10T08:08:32;9.27;;;1.60;;
52072;SDS011;38074;51.232;6.826;2023-01-10T08:15:48;8.30;;;2.28;;
52072;SDS011;38074;51.232;6.826;2023-01-10T08:23:05;8.03;;;1.90;;
52072;SDS011;38074;51.232;6.826;2023-01-10T08:30:21;7.60;;;1.53;;
52072;SDS011;38074;51.232;6.826;2023-01-10T08:37:37;10.30;;;1.80;;
52072;SDS011;38074;51.232;6.826;2023-01-10T08:44:53;3.80;;;1.47;;
52072;SDS011;38074;51.232;6.826;2023-01-10T08:52:08;4.13;;;1.20;;
52072;SDS011;38074;51.232;6.826;2023-01-10T08:59:24;6.63;;;1.40;;
52072;SDS011;38074;51.232;6.826;2023-01-10T09:06:39;7.03;;;1.33;;
52072;SDS011;38074;51.232;6.826;2023-01-10T09:13:55;7.90;;;1.40;;
52072;SDS011;38074;51.232;6.826;2023-01-10T09:21:10;6.97;;;1.30;;
52072;SDS011;38074;51.232;6.826;2023-01-10T09:28:26;7.43;;;1.30;;
52072;SDS011;38074;51.232;6.826;2023-01-10T09:35:41;9.70;;;1.43;;
52072;SDS011;38074;51.232;6.826;2023-01-10T09:50:49;9.15;;;1.17;;
52072;SDS011;38074;51.232;6.826;2023-01-10T09:58:19;6.63;;;1.08;;
52072;SDS011;38074;51.232;6.826;2023-01-10T10:05:37;7.90;;;1.10;;
52072;SDS011;38074;51.232;6.826;2023-01-10T10:13:03;7.70;;;1.17;;
52072;SDS011;38074;51.232;6.826;2023-01-10T10:36:09;5.63;;;1.30;;
52072;SDS011;38074;51.232;6.826;2023-01-10T10:43:30;7.43;;;1.23;;
52072;SDS011;38074;51.232;6.826;2023-01-10T10:51:11;9.23;;;0.88;;
52072;SDS011;38074;51.232;6.826;2023-01-10T10:58:24;7.95;;;0.70;;
52072;SDS011;38074;51.232;6.826;2023-01-10T11:05:40;4.05;;;0.95;;
52072;SDS011;38074;51.232;6.826;2023-01-10T11:12:59;3.60;;;0.63;;
52072;SDS011;38074;51.232;6.826;2023-01-10T11:20:26;6.43;;;0.53;;
52072;SDS011;38074;51.232;6.826;2023-01-10T11:27:44;9.43;;;1.30;;
52072;SDS011;38074;51.232;6.826;2023-01-10T11:35:06;8.48;;;0.90;;
52072;SDS011;38074;51.232;6.826;2023-01-10T11:42:31;3.88;;;0.60;;
52072;SDS011;38074;51.232;6.826;2023-01-10T11:49:47;4.55;;;0.40;;
52072;SDS011;38074;51.232;6.826;2023-01-10T11:57:07;6.10;;;0.63;;
52072;SDS011;38074;51.232;6.826;2023-01-10T12:04:33;4.72;;;0.60;;
52072;SDS011;38074;51.232;6.826;2023-01-10T12:12:00;5.50;;;0.80;;
52072;SDS011;38074;51.232;6.826;2023-01-10T12:19:17;3.72;;;0.47;;
52072;SDS011;38074;51.232;6.826;2023-01-10T12:26:33;4.07;;;0.50;;
52072;SDS011;38074;51.232;6.826;2023-01-10T12:33:53;3.42;;;0.60;;
52072;SDS011;38074;51.232;6.826;2023-01-10T12:41:14;3.55;;;0.50;;
52072;SDS011;38074;51.232;6.826;2023-01-10T12:49:17;7.65;;;1.15;;
52072;SDS011;38074;51.232;6.826;2023-01-10T12:56:38;5.10;;;1.50;;
52072;SDS011;38074;51.232;6.826;2023-01-10T13:03:56;6.72;;;1.70;;
52072;SDS011;38074;51.232;6.826;2023-01-10T13:11:16;8.88;;;1.83;;
52072;SDS011;38074;51.232;6.826;2023-01-10T13:18:36;21.73;;;5.88;;
52072;SDS011;38074;51.232;6.826;2023-01-10T13:25:53;23.67;;;6.67;;
52072;SDS011;38074;51.232;6.826;2023-01-10T13:33:24;24.73;;;7.55;;
52072;SDS011;38074;51.232;6.826;2023-01-10T13:40:48;21.35;;;7.55;;
52072;SDS011;38074;51.232;6.826;2023-01-10T13:49:17;21.98;;;6.85;;
52072;SDS011;38074;51.232;6.826;2023-01-10T13:56:37;30.27;;;7.30;;
52072;SDS011;38074;51.232;6.826;2023-01-10T14:03:55;24.63;;;7.05;;
52072;SDS011;38074;51.232;6.826;2023-01-10T14:18:31;17.47;;;5.57;;
52072;SDS011;38074;51.232;6.826;2023-01-10T14:25:53;22.40;;;6.63;;
52072;SDS011;38074;51.232;6.826;2023-01-10T14:33:12;20.85;;;5.68;;
52072;SDS011;38074;51.232;6.826;2023-01-10T14:40:43;15.68;;;4.15;;
52072;SDS011;38074;51.232;6.826;2023-01-10T14:48:16;14.10;;;3.83;;
52072;SDS011;38074;51.232;6.826;2023-01-10T14:55:43;11.75;;;3.65;;
52072;SDS011;38074;51.232;6.826;2023-01-10T15:02:59;11.77;;;3.97;;
52072;SDS011;38074;51.232;6.826;2023-01-10T15:10:37;10.60;;;3.53;;
52072;SDS011;38074;51.232;6.826;2023-01-10T15:32:32;10.27;;;3.67;;
52072;SDS011;38074;51.232;6.826;2023-01-10T15:39:52;9.07;;;2.85;;
52072;SDS011;38074;51.232;6.826;2023-01-10T15:55:18;6.20;;;2.15;;
52072;SDS011;38074;51.232;6.826;2023-01-10T16:02:48;7.13;;;2.15;;
52072;SDS011;38074;51.232;6.826;2023-01-10T16:10:06;6.28;;;2.03;;
52072;SDS011;38074;51.232;6.826;2023-01-10T16:17:46;6.78;;;2.15;;
52072;SDS011;38074;51.232;6.826;2023-01-10T16:25:02;6.90;;;2.10;;
52072;SDS011;38074;51.232;6.826;2023-01-10T16:32:18;5.35;;;1.70;;
52072;SDS011;38074;51.232;6.826;2023-01-10T16:39:33;4.97;;;2.03;;
52072;SDS011;38074;51.232;6.826;2023-01-10T16:46:49;5.73;;;1.50;;
52072;SDS011;38074;51.232;6.826;2023-01-10T16:54:08;6.10;;;1.58;;
52072;SDS011;38074;51.232;6.826;2023-01-10T17:01:33;5.72;;;1.27;;
52072;SDS011;38074;51.232;6.826;2023-01-10T17:08:52;4.28;;;1.27;;
52072;SDS011;38074;51.232;6.826;2023-01-10T17:16:07;3.67;;;1.17;;
52072;SDS011;38074;51.232;6.826;2023-01-10T17:23:24;4.78;;;1.50;;
52072;SDS011;38074;51.232;6.826;2023-01-10T17:30:40;3.00;;;1.10;;
52072;SDS011;38074;51.232;6.826;2023-01-10T17:37:56;3.78;;;1.17;;
52072;SDS011;38074;51.232;6.826;2023-01-10T17:45:12;5.73;;;1.40;;
52072;SDS011;38074;51.232;6.826;2023-01-10T17:52:27;3.87;;;1.27;;
52072;SDS011;38074;51.232;6.826;2023-01-10T17:59:43;6.72;;;1.52;;
52072;SDS011;38074;51.232;6.826;2023-01-10T18:06:58;8.57;;;1.42;;
52072;SDS011;38074;51.232;6.826;2023-01-10T18:14:14;4.40;;;1.50;;
52072;SDS011;38074;51.232;6.826;2023-01-10T18:21:48;5.57;;;1.30;;
52072;SDS011;38074;51.232;6.826;2023-01-10T18:29:03;6.77;;;1.30;;
52072;SDS011;38074;51.232;6.826;2023-01-10T18:36:19;7.80;;;1.43;;
52072;SDS011;38074;51.232;6.826;2023-01-10T18:43:36;5.30;;;1.05;;
52072;SDS011;38074;51.232;6.826;2023-01-10T18:50:53;6.68;;;0.90;;
52072;SDS011;38074;51.232;6.826;2023-01-10T18:58:09;6.50;;;1.20;;
52072;SDS011;38074;51.232;6.826;2023-01-10T19:05:24;5.60;;;1.40;;
52072;SDS011;38074;51.232;6.826;2023-01-10T19:12:41;8.57;;;1.70;;
52072;SDS011;38074;51.232;6.826;2023-01-10T19:19:56;4.77;;;0.77;;
52072;SDS011;38074;51.232;6.826;2023-01-10T19:27:12;11.00;;;1.47;;
52072;SDS011;38074;51.232;6.826;2023-01-10T19:34:28;7.28;;;1.40;;
52072;SDS011;38074;51.232;6.826;2023-01-10T19:41:43;7.05;;;1.13;;
52072;SDS011;38074;51.232;6.826;2023-01-10T19:48:59;7.90;;;1.00;;
52072;SDS011;38074;51.232;6.826;2023-01-10T19:56:21;9.75;;;0.98;;
52072;SDS011;38074;51.232;6.826;2023-01-10T20:03:37;7.63;;;1.63;;
52072;SDS011;38074;51.232;6.826;2023-01-10T20:10:59;5.20;;;1.17;;
52072;SDS011;38074;51.232;6.826;2023-01-10T20:18:19;6.45;;;1.13;;
52072;SDS011;38074;51.232;6.826;2023-01-10T20:25:34;3.40;;;0.87;;
52072;SDS011;38074;51.232;6.826;2023-01-10T20:32:50;6.40;;;1.03;;
52072;SDS011;38074;51.232;6.826;2023-01-10T20:40:07;6.85;;;0.93;;
52072;SDS011;38074;51.232;6.826;2023-01-10T20:47:23;4.90;;;0.83;;
52072;SDS011;38074;51.232;6.826;2023-01-10T20:54:40;2.53;;;0.60;;
52072;SDS011;38074;51.232;6.826;2023-01-10T21:01:56;3.43;;;0.70;;
52072;SDS011;38074;51.232;6.826;2023-01-10T21:09:11;4.38;;;0.73;;
52072;SDS011;38074;51.232;6.826;2023-01-10T21:16:30;3.08;;;0.60;;
52072;SDS011;38074;51.232;6.826;2023-01-10T21:23:45;3.80;;;0.40;;
52072;SDS011;38074;51.232;6.826;2023-01-10T21:31:01;6.53;;;0.80;;
52072;SDS011;38074;51.232;6.826;2023-01-10T21:38:16;2.85;;;0.57;;
52072;SDS011;38074;51.232;6.826;2023-01-10T21:45:32;2.57;;;0.40;;
52072;SDS011;38074;51.232;6.826;2023-01-10T21:52:48;3.80;;;0.47;;
52072;SDS011;38074;51.232;6.826;2023-01-10T22:00:04;1.48;;;0.30;;
52072;SDS011;38074;51.232;6.826;2023-01-10T22:07:20;1.55;;;0.30;;
52072;SDS011;38074;51.232;6.826;2023-01-10T22:14:40;2.30;;;0.40;;
52072;SDS011;38074;51.232;6.826;2023-01-10T22:21:56;0.93;;;0.30;;
52072;SDS011;38074;51.232;6.826;2023-01-10T22:29:11;1.77;;;0.50;;
52072;SDS011;38074;51.232;6.826;2023-01-10T22:36:27;1.23;;;0.30;;
52072;SDS011;38074;51.232;6.826;2023-01-10T22:43:42;1.17;;;0.30;;
52072;SDS011;38074;51.232;6.826;2023-01-10T22:50:58;3.10;;;0.40;;
52072;SDS011;38074;51.232;6.826;2023-01-10T22:58:15;1.30;;;0.30;;
52072;SDS011;38074;51.232;6.826;2023-01-10T23:05:30;1.67;;;0.20;;
52072;SDS011;38074;51.232;6.826;2023-01-10T23:12:46;0.90;;;0.40;;
52072;SDS011;38074;51.232;6.826;2023-01-10T23:20:02;0.63;;;0.17;;
52072;SDS011;38074;51.232;6.826;2023-01-10T23:27:18;0.43;;;0.20;;
52072;SDS011;38074;51.232;6.826;2023-01-10T23:34:34;1.77;;;0.47;;
52072;SDS011;38074;51.232;6.826;2023-01-10T23:41:50;0.60;;;0.20;;
52072;SDS011;38074;51.232;6.826;2023-01-10T23:49:06;0.40;;;0.20;;
52072;SDS011;38074;51.232;6.826;2023-01-10T23:56:21;1.20;;;0.20;;
